Thunder radar more information blitzortung!


Radar de pluja more information rain snow radar


Visita la nostra xarxa de llocs de meteo:

Template documentation
and downloads

And another site



No particular awareness of the weather is required.    There are no Weather-warnings

Pagina Historial Weather Underground text

Diari Resum Juny 14, 2017 Unitats:  Imperial    Mètric   Tant
« Previous Dia
SegĂźent Dia »
Diari Setmana Mensual Anual Personalitzada
  Maxima: Minima: Media:
Temperatura: TemperatureC °F 19.0 °F 29.2 °F
Punt de rosada: DewpointC °F 5.1 °F 9.3 °F
Humitat: Humidity % 22 % 30 %
Wind Speed: WindSpeedKMH mph 0.0 mph 8.3 mph
RĂ fegues de vent: WindSpeedGustKMH mph - -
Vent:- - SSW
Pression baro: PressurehPa in 1009.0 in -
Precipitacions: 0.0 in    
Historical Graphs
 
 
Dades de taula per Juny 14, 2017
Temps Temperatura Punt de rosada Pression baro Vent Wind Speed RĂ fegues de vent Humitat Rainfall Rate (Hourly)
TemperatureC °F DewpointC °F PressurehPa in Calm     Humidity % HourlyPrecipMM in
00:02 24.1 °F 10.7 °F 1011.7 in SW 1.9 mph 2.3 mph 43 % 0.0 in
01:45 19.0 °F 10.6 °F 1013.8 in SW 1.6 mph 1.6 mph 58 % 0.0 in
01:55 19.1 °F 10.7 °F 1013.8 in Calm   1.6 mph 58 % 0.0 in
02:05 19.8 °F 11.3 °F 1013.8 in SW 1.6 mph 1.6 mph 58 % 0.0 in
02:15 20.0 °F 10.9 °F 1013.8 in Calm   3.2 mph 56 % 0.0 in
02:25 20.7 °F 11.3 °F 1013.8 in ENE 1.6 mph 1.6 mph 55 % 0.0 in
02:35 21.0 °F 11.3 °F 1013.8 in ENE 1.6 mph 1.6 mph 54 % 0.0 in
02:45 21.3 °F 11.3 °F 1013.8 in Calm   1.6 mph 53 % 0.0 in
02:55 21.6 °F 11.9 °F 1013.8 in Calm   1.6 mph 54 % 0.0 in
03:05 21.9 °F 11.6 °F 1013.8 in ENE 3.2 mph 3.2 mph 52 % 0.0 in
03:15 22.0 °F 11.4 °F 1013.8 in ENE 1.6 mph 3.2 mph 51 % 0.0 in
03:25 22.5 °F 11.8 °F 1013.8 in Calm   3.2 mph 51 % 0.0 in
03:35 22.8 °F 12.1 °F 1013.8 in SSW 1.6 mph 3.2 mph 51 % 0.0 in
03:45 23.3 °F 11.7 °F 1013.8 in NE 3.2 mph 6.4 mph 48 % 0.0 in
03:55 24.1 °F 12.4 °F 1013.8 in ENE 1.6 mph 3.2 mph 48 % 0.0 in
04:05 24.5 °F 12.4 °F 1013.8 in East 1.6 mph 3.2 mph 47 % 0.0 in
04:15 25.0 °F 12.6 °F 1013.8 in SSE 1.6 mph 3.2 mph 46 % 0.0 in
04:25 24.8 °F 12.4 °F 1012.8 in SW 3.2 mph 3.2 mph 46 % 0.0 in
04:35 25.4 °F 12.6 °F 1012.8 in Calm   3.2 mph 45 % 0.0 in
04:45 26.3 °F 13.1 °F 1012.8 in SW 3.2 mph 3.2 mph 44 % 0.0 in
04:55 27.0 °F 13.3 °F 1013.8 in SSE 1.6 mph 3.2 mph 43 % 0.0 in
05:05 27.6 °F 13.6 °F 1013.8 in ESE 3.2 mph 4.8 mph 42 % 0.0 in
05:15 28.2 °F 13.3 °F 1012.8 in SE 4.8 mph 4.8 mph 40 % 0.0 in
05:25 28.9 °F 13.6 °F 1013.8 in SSE 3.2 mph 3.2 mph 39 % 0.0 in
05:35 28.9 °F 13.2 °F 1013.8 in SSW 4.8 mph 6.4 mph 38 % 0.0 in
10:41 29.1 °F 12.5 °F 1012.8 in SW 9.3 mph 9.3 mph 36 % 0.0 in
10:46 29.1 °F 12.5 °F 1011.7 in WSW 7.4 mph 7.4 mph 36 % 0.0 in
10:51 29.5 °F 12.8 °F 1011.7 in SW 5.3 mph 5.3 mph 36 % 0.0 in
10:56 30.3 °F 13.1 °F 1011.7 in West 3.7 mph 3.7 mph 35 % 0.0 in
11:01 30.6 °F 12.9 °F 1012.8 in WNW 11.1 mph 11.1 mph 34 % 0.0 in
11:06 30.7 °F 13.1 °F 1012.8 in SSW 10.0 mph 10.0 mph 34 % 0.0 in
11:11 30.6 °F 12.5 °F 1012.8 in SSE 9.3 mph 9.3 mph 33 % 0.0 in
11:16 31.1 °F 12.4 °F 1011.7 in WNW 11.1 mph 11.1 mph 32 % 0.0 in
11:21 31.3 °F 12.2 °F 1011.7 in South 9.3 mph 9.3 mph 31 % 0.0 in
11:26 31.1 °F 12.0 °F 1011.7 in SW 13.0 mph 13.0 mph 31 % 0.0 in
11:31 31.1 °F 11.5 °F 1011.7 in SW 13.0 mph 13.0 mph 30 % 0.0 in
11:36 31.2 °F 11.6 °F 1011.7 in SW 13.0 mph 13.0 mph 30 % 0.0 in
11:41 31.3 °F 11.7 °F 1011.7 in SW 14.0 mph 14.0 mph 30 % 0.0 in
11:46 31.5 °F 11.3 °F 1011.7 in SW 9.3 mph 9.3 mph 29 % 0.0 in
11:51 31.6 °F 11.4 °F 1011.7 in SW 13.0 mph 14.0 mph 29 % 0.0 in
11:56 31.4 °F 10.7 °F 1011.7 in WSW 11.1 mph 11.1 mph 28 % 0.0 in
12:01 31.6 °F 11.4 °F 1011.7 in SW 18.5 mph 18.5 mph 29 % 0.0 in
12:06 31.8 °F 11.6 °F 1011.7 in SW 9.0 mph 9.0 mph 29 % 0.0 in
12:11 31.6 °F 10.9 °F 1011.7 in SW 14.8 mph 14.8 mph 28 % 0.0 in
12:16 31.9 °F 11.1 °F 1011.7 in SSW 13.0 mph 13.0 mph 28 % 0.0 in
12:21 32.0 °F 10.7 °F 1011.7 in SW 13.0 mph 13.0 mph 27 % 0.0 in
12:26 32.3 °F 10.9 °F 1011.7 in SW 13.0 mph 13.0 mph 27 % 0.0 in
12:31 32.6 °F 11.2 °F 1011.7 in WSW 11.1 mph 11.1 mph 27 % 0.0 in
12:32 32.6 °F 11.2 °F 1011.7 in SW 9.5 mph 9.5 mph 27 % 0.0 in
12:37 32.7 °F 11.3 °F 1011.7 in South 9.3 mph 9.3 mph 27 % 0.0 in
12:42 32.5 °F 11.1 °F 1011.7 in SSW 16.7 mph 16.7 mph 27 % 0.0 in
12:47 32.5 °F 10.5 °F 1011.7 in SSW 22.2 mph 22.2 mph 26 % 0.0 in
12:52 32.5 °F 10.5 °F 1011.7 in SSW 14.8 mph 14.8 mph 26 % 0.0 in
12:57 33.0 °F 10.9 °F 1011.7 in SSW 9.5 mph 9.5 mph 26 % 0.0 in
13:02 33.1 °F 11.0 °F 1011.7 in SSE 13.0 mph 13.0 mph 26 % 0.0 in
13:07 33.9 °F 11.7 °F 1011.7 in SSW 4.7 mph 4.7 mph 26 % 0.0 in
13:12 33.6 °F 11.4 °F 1011.7 in South 19.5 mph 19.5 mph 26 % 0.0 in
13:17 33.5 °F 11.4 °F 1011.7 in SW 14.8 mph 14.8 mph 26 % 0.0 in
13:22 33.6 °F 11.4 °F 1011.7 in SSE 9.3 mph 9.3 mph 26 % 0.0 in
13:27 33.7 °F 11.6 °F 1011.7 in WSW 16.7 mph 16.7 mph 26 % 0.0 in
13:32 33.8 °F 11.0 °F 1011.7 in SW 12.2 mph 12.2 mph 25 % 0.0 in
13:37 33.8 °F 11.0 °F 1011.7 in SSW 13.0 mph 13.0 mph 25 % 0.0 in
13:42 34.5 °F 11.6 °F 1011.7 in WSW 9.3 mph 9.7 mph 25 % 0.0 in
13:47 34.0 °F 11.2 °F 1010.7 in South 9.0 mph 9.0 mph 25 % 0.0 in
13:52 34.0 °F 11.2 °F 1010.7 in South 11.1 mph 11.1 mph 25 % 0.0 in
13:57 34.0 °F 10.6 °F 1010.7 in South 11.1 mph 11.1 mph 24 % 0.0 in
14:02 34.0 °F 10.6 °F 1011.7 in ESE 18.5 mph 18.5 mph 24 % 0.0 in
14:07 34.5 °F 11.6 °F 1011.7 in South 14.8 mph 14.8 mph 25 % 0.0 in
14:12 33.9 °F 10.5 °F 1011.7 in SW 18.5 mph 18.5 mph 24 % 0.0 in
14:17 33.8 °F 10.4 °F 1011.7 in SSW 16.9 mph 16.9 mph 24 % 0.0 in
14:22 33.9 °F 10.5 °F 1011.7 in WSW 11.1 mph 11.1 mph 24 % 0.0 in
14:27 34.2 °F 11.4 °F 1011.7 in SSW 9.3 mph 9.3 mph 25 % 0.0 in
14:32 33.9 °F 10.5 °F 1011.7 in South 20.4 mph 20.4 mph 24 % 0.0 in
14:37 34.4 °F 10.9 °F 1011.7 in South 9.3 mph 9.3 mph 24 % 0.0 in
14:42 34.1 °F 10.7 °F 1011.7 in WSW 13.0 mph 13.0 mph 24 % 0.0 in
14:47 34.2 °F 10.7 °F 1011.7 in SW 16.7 mph 16.7 mph 24 % 0.0 in
14:52 34.5 °F 11.0 °F 1011.7 in SSW 9.3 mph 9.3 mph 24 % 0.0 in
14:57 34.8 °F 11.2 °F 1011.7 in SSW 14.8 mph 14.8 mph 24 % 0.0 in
15:02 34.4 °F 10.3 °F 1011.7 in SSW 20.4 mph 20.4 mph 23 % 0.0 in
15:07 34.3 °F 10.8 °F 1011.7 in SW 14.0 mph 14.0 mph 24 % 0.0 in
15:12 34.3 °F 10.8 °F 1011.7 in SSW 10.0 mph 10.0 mph 24 % 0.0 in
15:17 34.2 °F 10.7 °F 1011.7 in WSW 9.3 mph 9.3 mph 24 % 0.0 in
15:22 34.8 °F 10.6 °F 1011.7 in SSW 9.7 mph 9.7 mph 23 % 0.0 in
15:27 35.0 °F 10.8 °F 1011.7 in SSE 7.4 mph 7.4 mph 23 % 0.0 in
15:32 35.0 °F 10.1 °F 1011.7 in SSW 14.8 mph 14.8 mph 22 % 0.0 in
15:37 34.8 °F 11.2 °F 1011.7 in SW 13.0 mph 13.0 mph 24 % 0.0 in
15:42 34.9 °F 10.7 °F 1011.7 in West 14.8 mph 14.8 mph 23 % 0.0 in
15:47 34.9 °F 10.7 °F 1010.7 in SW 16.1 mph 16.1 mph 23 % 0.0 in
15:52 34.6 °F 10.4 °F 1010.7 in SW 13.0 mph 13.0 mph 23 % 0.0 in
15:57 34.6 °F 10.4 °F 1010.7 in SSE 11.1 mph 11.1 mph 23 % 0.0 in
16:02 34.9 °F 10.7 °F 1010.7 in SW 12.2 mph 12.2 mph 23 % 0.0 in
16:07 34.9 °F 10.7 °F 1010.7 in WSW 16.7 mph 16.7 mph 23 % 0.0 in
16:12 35.3 °F 10.3 °F 1010.7 in SSW 7.4 mph 7.4 mph 22 % 0.0 in
16:17 35.2 °F 10.9 °F 1010.7 in SW 11.1 mph 11.1 mph 23 % 0.0 in
16:22 35.1 °F 10.8 °F 1010.7 in SSW 13.0 mph 13.0 mph 23 % 0.0 in
16:27 35.0 °F 10.1 °F 1010.7 in SW 14.8 mph 14.8 mph 22 % 0.0 in
16:32 35.1 °F 10.2 °F 1010.7 in SW 14.8 mph 14.8 mph 22 % 0.0 in
16:37 34.9 °F 10.7 °F 1010.7 in SSE 9.3 mph 9.3 mph 23 % 0.0 in
16:42 34.4 °F 10.3 °F 1010.7 in SSE 11.1 mph 11.1 mph 23 % 0.0 in
16:47 34.2 °F 10.1 °F 1010.7 in SSW 16.7 mph 16.7 mph 23 % 0.0 in
16:52 34.4 °F 10.3 °F 1010.7 in SW 11.1 mph 11.1 mph 23 % 0.0 in
16:57 34.7 °F 10.5 °F 1010.7 in SW 20.4 mph 20.4 mph 23 % 0.0 in
17:02 33.9 °F 9.8 °F 1010.7 in WSW 16.7 mph 16.7 mph 23 % 0.0 in
17:07 33.9 °F 9.8 °F 1010.7 in SW 14.8 mph 14.8 mph 23 % 0.0 in
17:12 34.3 °F 10.8 °F 1010.7 in WSW 12.6 mph 12.6 mph 24 % 0.0 in
17:17 33.9 °F 10.5 °F 1010.0 in SSW 14.8 mph 14.8 mph 24 % 0.0 in
17:22 34.0 °F 10.6 °F 1010.0 in SSW 13.0 mph 13.0 mph 24 % 0.0 in
17:27 34.3 °F 10.8 °F 1010.0 in West 13.0 mph 13.0 mph 24 % 0.0 in
17:32 34.1 °F 10.7 °F 1010.0 in SW 11.1 mph 11.1 mph 24 % 0.0 in
17:37 34.2 °F 10.7 °F 1010.0 in SW 7.9 mph 7.9 mph 24 % 0.0 in
17:42 34.1 °F 10.7 °F 1010.0 in SSW 16.7 mph 16.7 mph 24 % 0.0 in
17:47 33.7 °F 10.3 °F 1010.0 in SSE 18.5 mph 18.5 mph 24 % 0.0 in
17:52 33.8 °F 10.4 °F 1010.0 in WSW 13.0 mph 13.0 mph 24 % 0.0 in
17:57 33.9 °F 10.5 °F 1010.0 in East 13.0 mph 13.0 mph 24 % 0.0 in
18:02 33.7 °F 9.7 °F 1010.0 in SE 11.1 mph 11.1 mph 23 % 0.0 in
18:07 33.6 °F 9.6 °F 1010.0 in South 9.3 mph 9.3 mph 23 % 0.0 in
18:12 33.5 °F 10.2 °F 1010.0 in South 11.1 mph 11.1 mph 24 % 0.0 in
18:17 33.7 °F 10.3 °F 1010.0 in SW 9.3 mph 9.3 mph 24 % 0.0 in
18:22 33.4 °F 10.1 °F 1010.0 in WSW 13.0 mph 13.0 mph 24 % 0.0 in
18:27 33.3 °F 10.0 °F 1010.0 in WSW 9.3 mph 9.7 mph 24 % 0.0 in
18:32 33.1 °F 9.8 °F 1009.0 in SW 9.0 mph 9.0 mph 24 % 0.0 in
18:35 25.3 °F 5.4 °F 1012.8 in WSW 1.6 mph 3.2 mph 28 % 0.0 in
18:37 33.0 °F 9.1 °F 1009.0 in SW 16.7 mph 16.7 mph 23 % 0.0 in
18:42 32.9 °F 9.7 °F 1009.0 in SSW 9.5 mph 9.5 mph 24 % 0.0 in
18:45 25.2 °F 5.4 °F 1012.8 in West 1.6 mph 3.2 mph 28 % 0.0 in
18:47 32.7 °F 9.5 °F 1010.0 in SW 11.1 mph 11.1 mph 24 % 0.0 in
18:52 32.0 °F 8.9 °F 1010.0 in SSW 18.5 mph 18.5 mph 24 % 0.0 in
18:55 25.1 °F 5.3 °F 1012.8 in Calm   3.2 mph 28 % 0.0 in
18:57 32.1 °F 9.0 °F 1010.0 in SW 13.0 mph 13.0 mph 24 % 0.0 in
19:02 32.2 °F 9.1 °F 1010.0 in SW 9.3 mph 9.3 mph 24 % 0.0 in
19:07 32.0 °F 8.9 °F 1010.0 in WSW 13.0 mph 13.0 mph 24 % 0.0 in
19:12 31.9 °F 8.8 °F 1010.0 in SW 18.5 mph 18.5 mph 24 % 0.0 in
19:15 24.8 °F 6.1 °F 1012.8 in Calm     30 % 0.0 in
19:17 31.7 °F 8.7 °F 1010.0 in SW 11.1 mph 11.1 mph 24 % 0.0 in
19:22 31.6 °F 8.6 °F 1010.0 in SSW 11.1 mph 11.1 mph 24 % 0.0 in
19:25 24.7 °F 5.9 °F 1012.8 in Calm   1.6 mph 30 % 0.0 in
19:27 31.5 °F 8.5 °F 1010.0 in SSW 13.0 mph 13.0 mph 24 % 0.0 in
19:32 31.1 °F 8.2 °F 1010.0 in WSW 11.9 mph 11.9 mph 24 % 0.0 in
19:35 24.6 °F 5.9 °F 1012.8 in Calm     30 % 0.0 in
19:37 30.9 °F 8.0 °F 1010.0 in SW 9.3 mph 9.3 mph 24 % 0.0 in
19:42 30.7 °F 7.8 °F 1010.0 in WSW 14.8 mph 14.8 mph 24 % 0.0 in
19:45 24.4 °F 6.2 °F 1012.8 in Calm     31 % 0.0 in
19:47 30.6 °F 7.7 °F 1010.0 in SW 16.7 mph 16.7 mph 24 % 0.0 in
19:52 30.6 °F 7.7 °F 1010.0 in SW 9.3 mph 9.3 mph 24 % 0.0 in
19:55 24.0 °F 6.3 °F 1012.8 in Calm     32 % 0.0 in
19:57 30.5 °F 7.7 °F 1010.0 in SSW 9.3 mph 9.3 mph 24 % 0.0 in
20:02 30.4 °F 7.6 °F 1010.0 in SW 13.0 mph 13.0 mph 24 % 0.0 in
20:05 23.6 °F 5.9 °F 1012.8 in SSW 1.6 mph 3.2 mph 32 % 0.0 in
20:07 30.3 °F 7.5 °F 1010.0 in WSW 16.9 mph 16.9 mph 24 % 0.0 in
20:12 30.1 °F 7.3 °F 1010.0 in WSW 13.0 mph 13.0 mph 24 % 0.0 in
20:15 23.6 °F 6.4 °F 1012.8 in Calm   1.6 mph 33 % 0.0 in
20:18 30.0 °F 6.6 °F 1010.0 in SW 11.1 mph 11.1 mph 23 % 0.0 in
20:23 29.9 °F 7.1 °F 1010.0 in SSW 9.5 mph 9.5 mph 24 % 0.0 in
20:25 23.5 °F 6.3 °F 1013.8 in NW 1.6 mph 1.6 mph 33 % 0.0 in
20:28 29.8 °F 7.1 °F 1010.0 in WSW 14.8 mph 14.8 mph 24 % 0.0 in
20:33 29.7 °F 6.9 °F 1010.7 in SSW 9.3 mph 9.3 mph 24 % 0.0 in
20:35 23.3 °F 6.9 °F 1013.8 in NNW 1.6 mph 3.2 mph 35 % 0.0 in
20:38 29.5 °F 6.8 °F 1010.7 in SW 9.3 mph 9.3 mph 24 % 0.0 in
20:43 29.4 °F 6.7 °F 1010.7 in SSW 9.3 mph 9.3 mph 24 % 0.0 in
20:45 23.2 °F 6.9 °F 1013.8 in Calm   4.8 mph 35 % 0.0 in
20:48 29.2 °F 6.6 °F 1010.7 in SW 7.4 mph 7.4 mph 24 % 0.0 in
20:53 29.1 °F 6.4 °F 1010.7 in South 9.3 mph 9.3 mph 24 % 0.0 in
20:55 23.1 °F 6.8 °F 1013.8 in Calm     35 % 0.0 in
20:58 28.9 °F 6.9 °F 1010.7 in SW 9.3 mph 9.3 mph 25 % 0.0 in
21:03 28.8 °F 6.8 °F 1011.7 in SSW 7.4 mph 7.4 mph 25 % 0.0 in
21:05 23.0 °F 7.1 °F 1013.8 in Calm     36 % 0.0 in
21:08 28.6 °F 6.6 °F 1011.7 in SW 9.3 mph 9.3 mph 25 % 0.0 in
21:13 28.4 °F 6.4 °F 1011.7 in SW 5.6 mph 5.6 mph 25 % 0.0 in
21:15 22.7 °F 7.7 °F 1012.8 in Calm     38 % 0.0 in
21:18 28.3 °F 6.4 °F 1011.7 in SW 9.3 mph 9.3 mph 25 % 0.0 in
21:23 28.2 °F 6.3 °F 1011.7 in SW 9.3 mph 9.3 mph 25 % 0.0 in
21:25 22.5 °F 7.8 °F 1012.8 in Calm     39 % 0.0 in
21:28 28.0 °F 5.6 °F 1011.7 in SW 5.6 mph 5.6 mph 24 % 0.0 in
21:33 27.8 °F 5.9 °F 1011.7 in SW 5.6 mph 5.6 mph 25 % 0.0 in
21:35 22.3 °F 7.7 °F 1012.8 in Calm   1.6 mph 39 % 0.0 in
21:38 27.7 °F 5.9 °F 1011.7 in SW 4.7 mph 4.7 mph 25 % 0.0 in
21:43 27.6 °F 5.8 °F 1011.7 in WSW 5.6 mph 5.6 mph 25 % 0.0 in
21:45 22.3 °F 8.1 °F 1012.8 in Calm   1.6 mph 40 % 0.0 in
21:48 27.4 °F 5.6 °F 1011.7 in SW 3.7 mph 3.7 mph 25 % 0.0 in
21:53 27.2 °F 5.4 °F 1011.7 in SW 3.9 mph 3.9 mph 25 % 0.0 in
21:55 22.2 °F 7.9 °F 1012.8 in Calm     40 % 0.0 in
21:58 27.1 °F 5.4 °F 1011.7 in SW 5.6 mph 5.6 mph 25 % 0.0 in
22:03 27.0 °F 5.8 °F 1011.7 in SW 3.7 mph 3.7 mph 26 % 0.0 in
22:05 22.1 °F 7.9 °F 1012.8 in Calm   1.6 mph 40 % 0.0 in
22:08 26.8 °F 5.7 °F 1011.7 in SW 3.9 mph 3.9 mph 26 % 0.0 in
22:13 26.6 °F 5.5 °F 1011.7 in SSW 3.7 mph 3.7 mph 26 % 0.0 in
22:15 22.1 °F 7.9 °F 1011.7 in Calm   1.6 mph 40 % 0.0 in
22:18 26.5 °F 5.4 °F 1011.7 in SW 3.7 mph 3.7 mph 26 % 0.0 in
22:23 26.4 °F 5.3 °F 1011.7 in WSW 3.9 mph 3.9 mph 26 % 0.0 in
22:25 22.0 °F 8.1 °F 1011.7 in Calm   3.2 mph 41 % 0.0 in
22:28 26.3 °F 5.3 °F 1011.7 in WSW 5.6 mph 5.6 mph 26 % 0.0 in
22:33 26.2 °F 5.7 °F 1011.7 in WSW 3.9 mph 3.9 mph 27 % 0.0 in
22:35 21.7 °F 7.9 °F 1011.7 in NE 1.6 mph 1.6 mph 41 % 0.0 in
22:38 26.1 °F 5.6 °F 1011.7 in WSW 3.7 mph 3.7 mph 27 % 0.0 in
22:43 25.9 °F 5.4 °F 1011.7 in WSW 3.7 mph 3.7 mph 27 % 0.0 in
22:45 21.4 °F 7.6 °F 1011.7 in Calm   3.2 mph 41 % 0.0 in
22:48 25.8 °F 5.4 °F 1012.8 in SW 3.7 mph 3.7 mph 27 % 0.0 in
22:53 25.7 °F 5.3 °F 1012.8 in WSW 3.9 mph 3.9 mph 27 % 0.0 in
22:55 21.3 °F 7.9 °F 1011.7 in Calm   1.6 mph 42 % 0.0 in
22:58 25.6 °F 5.2 °F 1012.8 in SW 3.7 mph 3.7 mph 27 % 0.0 in
23:03 25.5 °F 5.1 °F 1011.7 in SW 5.6 mph 5.6 mph 27 % 0.0 in
23:05 20.9 °F 7.8 °F 1011.7 in North 1.6 mph 3.2 mph 43 % 0.0 in
23:08 25.4 °F 5.1 °F 1011.7 in West 3.7 mph 3.7 mph 27 % 0.0 in
23:15 20.7 °F 8.0 °F 1011.7 in WSW 1.6 mph 3.2 mph 44 % 0.0 in
23:25 20.4 °F 7.7 °F 1011.7 in SW 1.6 mph 3.2 mph 44 % 0.0 in
23:35 20.2 °F 7.9 °F 1011.7 in Calm   3.2 mph 45 % 0.0 in
23:45 20.2 °F 7.9 °F 1011.7 in SW 1.6 mph 3.2 mph 45 % 0.0 in
23:55 19.9 °F 7.6 °F 1011.7 in SW 3.2 mph 3.2 mph 45 % 0.0 in
23:59 25.0 °F 5.2 °F 1012.8 in Calm     28 % 0.0 in
Meteo Sesrovires
Elogis d' Weather Underground - 4 mb

Guio original per  Jim McMurry - jmcmurry@mwt.net Adaptat per a la plantilla per  Wim van der Kuil - Leuven-Template.eu

Trobareu la nostra informacio del temps tambe a:

Weather Underground

AWEKAS